Erik Bye — LITD — position and weather

sailwx.info

Track history (hours):
 
Tides and Currents Weather Stations Pressure Air Temp Water Temp Dewpoint Dewpoint Depression Visibility Wind Speed Wind Dir Waves Ship Positions

Erik Bye

Last reported at 2017-Mar-30 18:32 UTC. Time now 2017-Mar-30 18:40 UTC.
Position N 63°07' E 007°44'.

Length 20 m; draft 2 m.

Type: SAR. MMSI: 259460000.

Date/timePositionNaut miles runAvg speedWind from/ knotsBaromVisibWave heightAir tempDewpointWater temp
2017-Mar-30 18:32N 63°07' E 007°44'0 0.0
2017-Mar-30 17:32N 63°07' E 007°44'0 0.0
2017-Mar-30 16:32N 63°07' E 007°44'0 0.0
2017-Mar-30 15:32N 63°07' E 007°44'1 1.0
2017-Mar-30 14:34N 63°06' E 007°43'2618.7
2017-Mar-30 13:11N 62°55' E 006°52'4 2.2
2017-Mar-30 11:21N 62°51' E 006°53'0 0.0
2017-Mar-30 10:30N 62°51' E 006°53'0 0.0
2017-Mar-30 09:33N 62°51' E 006°53'0 0.0
2017-Mar-30 08:33N 62°51' E 006°53'0 0.0
2017-Mar-30 07:33N 62°51' E 006°53'0 0.0
2017-Mar-30 06:33N 62°51' E 006°53'0 0.0
2017-Mar-30 05:33N 62°51' E 006°53'0 0.0
2017-Mar-30 04:30N 62°51' E 006°53'0 0.0
2017-Mar-30 03:33N 62°51' E 006°53'0 0.0
2017-Mar-30 02:33N 62°51' E 006°53'0 0.0
2017-Mar-30 01:33N 62°51' E 006°53'0 0.0
2017-Mar-30 00:33N 62°51' E 006°53'0 0.0
2017-Mar-29 23:33N 62°51' E 006°53'0 0.0
2017-Mar-29 22:33N 62°51' E 006°53'0 0.0
2017-Mar-29 21:33N 62°51' E 006°53'0 0.0
2017-Mar-29 20:33N 62°51' E 006°53'0 0.0
2017-Mar-29 19:27N 62°51' E 006°53'0 0.0
2017-Mar-29 18:30N 62°51' E 006°53'0 0.0
2017-Mar-29 17:15N 62°51' E 006°53'0 0.0
2017-Mar-29 16:30N 62°51' E 006°53'0 0.0
2017-Mar-29 15:24N 62°51' E 006°53'0 0.0
2017-Mar-29 14:33N 62°51' E 006°53'0 0.0
2017-Mar-29 13:33N 62°51' E 006°53'2 2.5
2017-Mar-29 12:33N 62°53' E 006°54'1413.8
2017-Mar-29 11:34N 62°58' E 007°22'1716.5
2017-Mar-29 10:33N 63°06' E 007°54'4 3.8
2017-Mar-29 09:33N 63°07' E 007°47'1 1.0
2017-Mar-29 08:30N 63°07' E 007°44'0 0.0
2017-Mar-29 07:30N 63°07' E 007°44'0 0.0
2017-Mar-29 06:33N 63°07' E 007°44'0 0.0
2017-Mar-29 05:33N 63°07' E 007°44'0 0.0
2017-Mar-29 04:30N 63°07' E 007°44'0 0.0
2017-Mar-29 03:33N 63°07' E 007°44'0 0.0
2017-Mar-29 02:33N 63°07' E 007°44'0 0.0
2017-Mar-29 01:33N 63°07' E 007°44'0 0.0
2017-Mar-29 00:33N 63°07' E 007°44'0 0.0
2017-Mar-28 23:33N 63°07' E 007°44'0 0.0
2017-Mar-28 22:33N 63°07' E 007°44'0 0.0
2017-Mar-28 21:30N 63°07' E 007°44'0 0.0
2017-Mar-28 20:33N 63°07' E 007°44'0 0.0
2017-Mar-28 19:33N 63°07' E 007°44'0 0.0
2017-Mar-28 18:33N 63°07' E 007°44'0 0.0
2017-Mar-28 17:33N 63°07' E 007°44'0 0.0
2017-Mar-28 16:33N 63°07' E 007°44'0 0.0
2017-Mar-28 15:33N 63°07' E 007°44'0 0.0
2017-Mar-28 14:33N 63°07' E 007°44'0 0.0
2017-Mar-28 13:30N 63°07' E 007°44'0 0.0
2017-Mar-28 12:33N 63°07' E 007°44'0 0.0
2017-Mar-28 11:33N 63°07' E 007°44'0 0.0
2017-Mar-28 10:33N 63°07' E 007°44'0 0.0
2017-Mar-28 09:30N 63°07' E 007°44'0 0.0
2017-Mar-28 08:33N 63°07' E 007°44'0 0.0
2017-Mar-28 07:33N 63°07' E 007°44'0 0.0
2017-Mar-28 06:33N 63°07' E 007°44'0 0.0
2017-Mar-28 05:33N 63°07' E 007°44'0 0.0
2017-Mar-28 04:30N 63°07' E 007°44'0 0.0
2017-Mar-28 03:33N 63°07' E 007°44'0 0.0
2017-Mar-28 02:33N 63°07' E 007°44'0 0.0
2017-Mar-28 01:33N 63°07' E 007°44'2 2.3
2017-Mar-28 00:34N 63°05' E 007°41'2 2.0
2017-Mar-27 23:33N 63°07' E 007°44'0 0.4
2017-Mar-27 22:33N 63°07' E 007°44'0 0.0
2017-Mar-27 21:33N 63°07' E 007°44'0 0.0
2017-Mar-27 20:33N 63°07' E 007°44'0 0.0
2017-Mar-27 19:33N 63°07' E 007°44'0 0.0
2017-Mar-27 18:33N 63°07' E 007°44'0 0.0
2017-Mar-27 17:33N 63°07' E 007°44'0 0.0
2017-Mar-27 16:33N 63°07' E 007°44'0 0.0
2017-Mar-27 15:33N 63°07' E 007°44'0 0.0
2017-Mar-27 14:30N 63°07' E 007°44'0 0.0
2017-Mar-27 13:33N 63°07' E 007°44'0 0.0
2017-Mar-27 12:33N 63°07' E 007°44'0 0.0
2017-Mar-27 11:33N 63°07' E 007°44'0 0.0
2017-Mar-27 10:33N 63°07' E 007°44'0 0.0
2017-Mar-27 09:27N 63°07' E 007°44'0 0.0
2017-Mar-27 08:33N 63°07' E 007°44'0 0.0
2017-Mar-27 07:33N 63°07' E 007°44'0 0.0
2017-Mar-27 06:33N 63°07' E 007°44'0 0.0
2017-Mar-27 05:30N 63°07' E 007°44'0 0.0
2017-Mar-27 04:33N 63°07' E 007°44'0 0.0
2017-Mar-27 03:33N 63°07' E 007°44'0 0.0
2017-Mar-27 02:33N 63°07' E 007°44'0 0.0
2017-Mar-27 01:33N 63°07' E 007°44'0 0.0
2017-Mar-27 00:30N 63°07' E 007°44'0 0.0
2017-Mar-26 23:24N 63°07' E 007°44'0 0.0
2017-Mar-26 22:33N 63°07' E 007°44'0 0.0
2017-Mar-26 21:33N 63°07' E 007°44'0 0.0
2017-Mar-26 20:30N 63°07' E 007°44'0 0.0
2017-Mar-26 19:33N 63°07' E 007°44'0 0.0
2017-Mar-26 18:33N 63°07' E 007°44'0 0.0
2017-Mar-26 17:33N 63°07' E 007°44'0 0.0
2017-Mar-26 16:33N 63°07' E 007°44'0 0.0
2017-Mar-26 15:33N 63°07' E 007°44'0 0.0
2017-Mar-26 14:33N 63°07' E 007°44'0 0.0
2017-Mar-26 13:33N 63°07' E 007°44'0 0.0
2017-Mar-26 12:33N 63°07' E 007°44'0 0.0
2017-Mar-26 11:33N 63°07' E 007°44'0 0.0
2017-Mar-26 10:33N 63°07' E 007°44'0 0.0
2017-Mar-26 09:33N 63°07' E 007°44'0 0.0
2017-Mar-26 08:30N 63°07' E 007°44'0 0.0
2017-Mar-26 07:27N 63°07' E 007°44'0 0.0
2017-Mar-26 06:30N 63°07' E 007°44'0 0.0
2017-Mar-26 05:30N 63°07' E 007°44'0 0.0
2017-Mar-26 04:33N 63°07' E 007°44'0 0.0
2017-Mar-26 03:33N 63°07' E 007°44'0 0.0
2017-Mar-26 02:30N 63°07' E 007°44'0 0.0
2017-Mar-26 01:33N 63°07' E 007°44'0 0.0
2017-Mar-26 00:33N 63°07' E 007°44'0 0.0
2017-Mar-25 23:33N 63°07' E 007°44'0 0.0
2017-Mar-25 22:33N 63°07' E 007°44'0 0.0
2017-Mar-25 21:33N 63°07' E 007°44'0 0.0
2017-Mar-25 20:33N 63°07' E 007°44'0 0.0
2017-Mar-25 19:33N 63°07' E 007°44'0 0.0
2017-Mar-25 18:24N 63°07' E 007°44'0 0.0
2017-Mar-25 17:33N 63°07' E 007°44'0 0.0
2017-Mar-25 16:30N 63°07' E 007°44'0 0.0
2017-Mar-25 15:33N 63°07' E 007°44'0 0.0
2017-Mar-25 14:33N 63°07' E 007°44'0 0.0
2017-Mar-25 13:33N 63°07' E 007°44'0 0.0
2017-Mar-25 12:33N 63°07' E 007°44'0 0.0
2017-Mar-25 11:33N 63°07' E 007°44'0 0.0
2017-Mar-25 10:33N 63°07' E 007°44'0 0.0
2017-Mar-25 09:33N 63°07' E 007°44'0 0.0
2017-Mar-25 08:33N 63°07' E 007°44'0 0.0
2017-Mar-25 07:33N 63°07' E 007°44'0 0.0
2017-Mar-25 06:33N 63°07' E 007°44'0 0.0
2017-Mar-25 05:33N 63°07' E 007°44'0 0.0
2017-Mar-25 04:30N 63°07' E 007°44'0 0.0
2017-Mar-25 03:30N 63°07' E 007°44'0 0.0
2017-Mar-25 02:33N 63°07' E 007°44'0 0.0
2017-Mar-25 01:33N 63°07' E 007°44'0 0.0
2017-Mar-25 00:33N 63°07' E 007°44'0 0.0
2017-Mar-24 23:33N 63°07' E 007°44'0 0.0
2017-Mar-24 22:33N 63°07' E 007°44'0 0.0
2017-Mar-24 21:33N 63°07' E 007°44'0 0.0
2017-Mar-24 20:33N 63°07' E 007°44'0 0.0
2017-Mar-24 19:33N 63°07' E 007°44'0 0.0
2017-Mar-24 18:33N 63°07' E 007°44'0 0.0
2017-Mar-24 17:33N 63°07' E 007°44'0 0.0
2017-Mar-24 16:27N 63°07' E 007°44'0 0.0
2017-Mar-24 15:33N 63°07' E 007°44'0 0.0
2017-Mar-24 14:33N 63°07' E 007°44'0 0.0
2017-Mar-24 13:33N 63°07' E 007°44'0 0.0
2017-Mar-24 12:33N 63°07' E 007°44'0 0.0
2017-Mar-24 11:30N 63°07' E 007°44'0 0.0
2017-Mar-24 10:33N 63°07' E 007°44'0 0.0
2017-Mar-24 09:33N 63°07' E 007°44'0 0.0
2017-Mar-24 08:33N 63°07' E 007°44'0 0.0
2017-Mar-24 07:33N 63°07' E 007°44'0 0.0
2017-Mar-24 06:33N 63°07' E 007°44'0 0.0
2017-Mar-24 05:33N 63°07' E 007°44'0 0.0
2017-Mar-24 04:33N 63°07' E 007°44'0 0.0
2017-Mar-24 03:33N 63°07' E 007°44'0 0.0
2017-Mar-24 02:33N 63°07' E 007°44'0 0.0
2017-Mar-24 01:33N 63°07' E 007°44'0 0.0
2017-Mar-24 00:33N 63°07' E 007°44'0 0.0
2017-Mar-23 23:33N 63°07' E 007°44'0 0.0
2017-Mar-23 22:30N 63°07' E 007°44'0 0.0
2017-Mar-23 21:30N 63°07' E 007°44'0 0.0
2017-Mar-23 20:33N 63°07' E 007°44'0 0.0
2017-Mar-23 19:33N 63°07' E 007°44'0 0.0
2017-Mar-23 18:33N 63°07' E 007°44'0 0.0
2017-Mar-23 17:33N 63°07' E 007°44'0 0.0
2017-Mar-23 16:33N 63°07' E 007°44'4 3.8
2017-Mar-23 15:34N 63°07' E 007°36'2117.8
2017-Mar-23 14:24N 62°56' E 006°57'6 6.7
2017-Mar-23 13:30N 62°51' E 006°53'0 0.0
2017-Mar-23 12:21N 62°51' E 006°53'0 0.0
2017-Mar-23 11:27N 62°51' E 006°53'0 0.0
2017-Mar-23 07:33N 62°51' E 006°53'0 0.0
2017-Mar-23 06:33N 62°51' E 006°53'0 0.0
2017-Mar-23 05:27N 62°51' E 006°53'0 0.0
2017-Mar-23 04:30N 62°51' E 006°53'0 0.0
2017-Mar-23 03:21N 62°51' E 006°53'0 0.0
2017-Mar-23 02:21N 62°51' E 006°53'0 0.0
2017-Mar-23 01:27N 62°51' E 006°53'0 0.0
2017-Mar-23 00:33N 62°51' E 006°53'0 0.0
2017-Mar-22 23:30N 62°51' E 006°53'0 0.0
2017-Mar-22 22:33N 62°51' E 006°53'0 0.0
2017-Mar-22 21:33N 62°51' E 006°53'0 0.0
2017-Mar-22 20:33N 62°51' E 006°53'0 0.0
2017-Mar-22 19:33N 62°51' E 006°53'0 0.0
2017-Mar-22 18:33N 62°51' E 006°53'0 0.0
2017-Mar-22 17:33N 62°51' E 006°53'0 0.0
2017-Mar-22 16:33N 62°51' E 006°53'0 0.0
2017-Mar-22 15:33N 62°51' E 006°53'0 0.0
2017-Mar-22 14:33N 62°51' E 006°53'0 0.0
2017-Mar-22 13:27N 62°51' E 006°53'0 0.0
2017-Mar-22 12:33N 62°51' E 006°53'0 0.0
2017-Mar-22 11:30N 62°51' E 006°53'3 1.7
2017-Mar-22 09:29N 62°54' E 006°57'0 0.0
2017-Mar-22 08:32N 62°54' E 006°57'0 0.0
2017-Mar-22 07:32N 62°54' E 006°57'0 0.0
2017-Mar-22 06:32N 62°54' E 006°57'0 0.0
2017-Mar-22 05:32N 62°54' E 006°57'0 0.0
2017-Mar-22 04:32N 62°54' E 006°57'0 0.0
2017-Mar-22 03:32N 62°54' E 006°57'0 0.0
2017-Mar-22 02:29N 62°54' E 006°57'0 0.0
2017-Mar-22 01:29N 62°54' E 006°57'0 0.0
2017-Mar-22 00:32N 62°54' E 006°57'0 0.0
2017-Mar-21 23:32N 62°54' E 006°57'0 0.0
2017-Mar-21 22:29N 62°54' E 006°57'0 0.0
2017-Mar-21 21:32N 62°54' E 006°57'0 0.0
2017-Mar-21 20:32N 62°54' E 006°57'0 0.0
2017-Mar-21 19:29N 62°54' E 006°57'0 0.0
2017-Mar-21 18:32N 62°54' E 006°57'0 0.0
2017-Mar-21 17:32N 62°54' E 006°57'0 0.0
2017-Mar-21 16:33N 62°54' E 006°57'0 0.0
2017-Mar-21 15:34N 62°54' E 006°57'2 2.2
2017-Mar-21 14:33N 62°54' E 006°53'2 2.2
2017-Mar-21 13:33N 62°54' E 006°57'0 0.0
2017-Mar-21 12:34N 62°54' E 006°57'1313.1
2017-Mar-21 11:34N 63°02' E 007°19'1211.8
2017-Mar-21 10:31N 63°07' E 007°44'0 0.0
2017-Mar-21 09:31N 63°07' E 007°44'0 0.0
2017-Mar-21 08:28N 63°07' E 007°44'0 0.0
2017-Mar-21 07:28N 63°07' E 007°44'0 0.0
2017-Mar-21 06:31N 63°07' E 007°44'0 0.0
2017-Mar-21 05:28N 63°07' E 007°44'0 0.0
2017-Mar-21 04:31N 63°07' E 007°44'0 0.0
2017-Mar-21 03:31N 63°07' E 007°44'0 0.0
2017-Mar-21 02:31N 63°07' E 007°44'0 0.0
2017-Mar-21 01:31N 63°07' E 007°44'0 0.0
2017-Mar-21 00:31N 63°07' E 007°44'0 0.0
2017-Mar-20 23:31N 63°07' E 007°44'0 0.0
2017-Mar-20 22:31N 63°07' E 007°44'0 0.0
2017-Mar-20 21:31N 63°07' E 007°44'0 0.0
2017-Mar-20 20:31N 63°07' E 007°44'0 0.0
2017-Mar-20 19:31N 63°07' E 007°44'  
Track history (hours):
 
Tides and Currents Weather Stations Pressure Air Temp Water Temp Dewpoint Dewpoint Depression Visibility Wind Speed Wind Dir Waves Ship Positions

Erik Bye

Last reported at 2017-Mar-30 18:32 UTC. Time now 2017-Mar-30 18:40 UTC.
Position N 63°07' E 007°44'.

Length 20 m; draft 2 m.

Type: SAR. MMSI: 259460000.

Date/timePositionNaut miles runAvg speedWind from/ knotsBaromVisibWave heightAir tempDewpointWater temp
2017-Mar-30 18:32N 63°07' E 007°44'0 0.0
2017-Mar-30 17:32N 63°07' E 007°44'0 0.0
2017-Mar-30 16:32N 63°07' E 007°44'0 0.0
2017-Mar-30 15:32N 63°07' E 007°44'1 1.0
2017-Mar-30 14:34N 63°06' E 007°43'2618.7
2017-Mar-30 13:11N 62°55' E 006°52'4 2.2
2017-Mar-30 11:21N 62°51' E 006°53'0 0.0
2017-Mar-30 10:30N 62°51' E 006°53'0 0.0
2017-Mar-30 09:33N 62°51' E 006°53'0 0.0
2017-Mar-30 08:33N 62°51' E 006°53'0 0.0
2017-Mar-30 07:33N 62°51' E 006°53'0 0.0
2017-Mar-30 06:33N 62°51' E 006°53'0 0.0
2017-Mar-30 05:33N 62°51' E 006°53'0 0.0
2017-Mar-30 04:30N 62°51' E 006°53'0 0.0
2017-Mar-30 03:33N 62°51' E 006°53'0 0.0
2017-Mar-30 02:33N 62°51' E 006°53'0 0.0
2017-Mar-30 01:33N 62°51' E 006°53'0 0.0
2017-Mar-30 00:33N 62°51' E 006°53'0 0.0
2017-Mar-29 23:33N 62°51' E 006°53'0 0.0
2017-Mar-29 22:33N 62°51' E 006°53'0 0.0
2017-Mar-29 21:33N 62°51' E 006°53'0 0.0
2017-Mar-29 20:33N 62°51' E 006°53'0 0.0
2017-Mar-29 19:27N 62°51' E 006°53'0 0.0
2017-Mar-29 18:30N 62°51' E 006°53'0 0.0
2017-Mar-29 17:15N 62°51' E 006°53'0 0.0
2017-Mar-29 16:30N 62°51' E 006°53'0 0.0
2017-Mar-29 15:24N 62°51' E 006°53'0 0.0
2017-Mar-29 14:33N 62°51' E 006°53'0 0.0
2017-Mar-29 13:33N 62°51' E 006°53'2 2.5
2017-Mar-29 12:33N 62°53' E 006°54'1413.8
2017-Mar-29 11:34N 62°58' E 007°22'1716.5
2017-Mar-29 10:33N 63°06' E 007°54'4 3.8
2017-Mar-29 09:33N 63°07' E 007°47'1 1.0
2017-Mar-29 08:30N 63°07' E 007°44'0 0.0
2017-Mar-29 07:30N 63°07' E 007°44'0 0.0
2017-Mar-29 06:33N 63°07' E 007°44'0 0.0
2017-Mar-29 05:33N 63°07' E 007°44'0 0.0
2017-Mar-29 04:30N 63°07' E 007°44'0 0.0
2017-Mar-29 03:33N 63°07' E 007°44'0 0.0
2017-Mar-29 02:33N 63°07' E 007°44'0 0.0
2017-Mar-29 01:33N 63°07' E 007°44'0 0.0
2017-Mar-29 00:33N 63°07' E 007°44'0 0.0
2017-Mar-28 23:33N 63°07' E 007°44'0 0.0
2017-Mar-28 22:33N 63°07' E 007°44'0 0.0
2017-Mar-28 21:30N 63°07' E 007°44'0 0.0
2017-Mar-28 20:33N 63°07' E 007°44'0 0.0
2017-Mar-28 19:33N 63°07' E 007°44'0 0.0
2017-Mar-28 18:33N 63°07' E 007°44'0 0.0
2017-Mar-28 17:33N 63°07' E 007°44'0 0.0
2017-Mar-28 16:33N 63°07' E 007°44'0 0.0
2017-Mar-28 15:33N 63°07' E 007°44'0 0.0
2017-Mar-28 14:33N 63°07' E 007°44'0 0.0
2017-Mar-28 13:30N 63°07' E 007°44'0 0.0
2017-Mar-28 12:33N 63°07' E 007°44'0 0.0
2017-Mar-28 11:33N 63°07' E 007°44'0 0.0
2017-Mar-28 10:33N 63°07' E 007°44'0 0.0
2017-Mar-28 09:30N 63°07' E 007°44'0 0.0
2017-Mar-28 08:33N 63°07' E 007°44'0 0.0
2017-Mar-28 07:33N 63°07' E 007°44'0 0.0
2017-Mar-28 06:33N 63°07' E 007°44'0 0.0
2017-Mar-28 05:33N 63°07' E 007°44'0 0.0
2017-Mar-28 04:30N 63°07' E 007°44'0 0.0
2017-Mar-28 03:33N 63°07' E 007°44'0 0.0
2017-Mar-28 02:33N 63°07' E 007°44'0 0.0
2017-Mar-28 01:33N 63°07' E 007°44'2 2.3
2017-Mar-28 00:34N 63°05' E 007°41'2 2.0
2017-Mar-27 23:33N 63°07' E 007°44'0 0.4
2017-Mar-27 22:33N 63°07' E 007°44'0 0.0
2017-Mar-27 21:33N 63°07' E 007°44'0 0.0
2017-Mar-27 20:33N 63°07' E 007°44'0 0.0
2017-Mar-27 19:33N 63°07' E 007°44'0 0.0
2017-Mar-27 18:33N 63°07' E 007°44'0 0.0
2017-Mar-27 17:33N 63°07' E 007°44'0 0.0
2017-Mar-27 16:33N 63°07' E 007°44'0 0.0
2017-Mar-27 15:33N 63°07' E 007°44'0 0.0
2017-Mar-27 14:30N 63°07' E 007°44'0 0.0
2017-Mar-27 13:33N 63°07' E 007°44'0 0.0
2017-Mar-27 12:33N 63°07' E 007°44'0 0.0
2017-Mar-27 11:33N 63°07' E 007°44'0 0.0
2017-Mar-27 10:33N 63°07' E 007°44'0 0.0
2017-Mar-27 09:27N 63°07' E 007°44'0 0.0
2017-Mar-27 08:33N 63°07' E 007°44'0 0.0
2017-Mar-27 07:33N 63°07' E 007°44'0 0.0
2017-Mar-27 06:33N 63°07' E 007°44'0 0.0
2017-Mar-27 05:30N 63°07' E 007°44'0 0.0
2017-Mar-27 04:33N 63°07' E 007°44'0 0.0
2017-Mar-27 03:33N 63°07' E 007°44'0 0.0
2017-Mar-27 02:33N 63°07' E 007°44'0 0.0
2017-Mar-27 01:33N 63°07' E 007°44'0 0.0
2017-Mar-27 00:30N 63°07' E 007°44'0 0.0
2017-Mar-26 23:24N 63°07' E 007°44'0 0.0
2017-Mar-26 22:33N 63°07' E 007°44'0 0.0
2017-Mar-26 21:33N 63°07' E 007°44'0 0.0
2017-Mar-26 20:30N 63°07' E 007°44'0 0.0
2017-Mar-26 19:33N 63°07' E 007°44'0 0.0
2017-Mar-26 18:33N 63°07' E 007°44'0 0.0
2017-Mar-26 17:33N 63°07' E 007°44'0 0.0
2017-Mar-26 16:33N 63°07' E 007°44'0 0.0
2017-Mar-26 15:33N 63°07' E 007°44'0 0.0
2017-Mar-26 14:33N 63°07' E 007°44'0 0.0
2017-Mar-26 13:33N 63°07' E 007°44'0 0.0
2017-Mar-26 12:33N 63°07' E 007°44'0 0.0
2017-Mar-26 11:33N 63°07' E 007°44'0 0.0
2017-Mar-26 10:33N 63°07' E 007°44'0 0.0
2017-Mar-26 09:33N 63°07' E 007°44'0 0.0
2017-Mar-26 08:30N 63°07' E 007°44'0 0.0
2017-Mar-26 07:27N 63°07' E 007°44'0 0.0
2017-Mar-26 06:30N 63°07' E 007°44'0 0.0
2017-Mar-26 05:30N 63°07' E 007°44'0 0.0
2017-Mar-26 04:33N 63°07' E 007°44'0 0.0
2017-Mar-26 03:33N 63°07' E 007°44'0 0.0
2017-Mar-26 02:30N 63°07' E 007°44'0 0.0
2017-Mar-26 01:33N 63°07' E 007°44'0 0.0
2017-Mar-26 00:33N 63°07' E 007°44'0 0.0
2017-Mar-25 23:33N 63°07' E 007°44'0 0.0
2017-Mar-25 22:33N 63°07' E 007°44'0 0.0
2017-Mar-25 21:33N 63°07' E 007°44'0 0.0
2017-Mar-25 20:33N 63°07' E 007°44'0 0.0
2017-Mar-25 19:33N 63°07' E 007°44'0 0.0
2017-Mar-25 18:24N 63°07' E 007°44'0 0.0
2017-Mar-25 17:33N 63°07' E 007°44'0 0.0
2017-Mar-25 16:30N 63°07' E 007°44'0 0.0
2017-Mar-25 15:33N 63°07' E 007°44'0 0.0
2017-Mar-25 14:33N 63°07' E 007°44'0 0.0
2017-Mar-25 13:33N 63°07' E 007°44'0 0.0
2017-Mar-25 12:33N 63°07' E 007°44'0 0.0
2017-Mar-25 11:33N 63°07' E 007°44'0 0.0
2017-Mar-25 10:33N 63°07' E 007°44'0 0.0
2017-Mar-25 09:33N 63°07' E 007°44'0 0.0
2017-Mar-25 08:33N 63°07' E 007°44'0 0.0
2017-Mar-25 07:33N 63°07' E 007°44'0 0.0
2017-Mar-25 06:33N 63°07' E 007°44'0 0.0
2017-Mar-25 05:33N 63°07' E 007°44'0 0.0
2017-Mar-25 04:30N 63°07' E 007°44'0 0.0
2017-Mar-25 03:30N 63°07' E 007°44'0 0.0
2017-Mar-25 02:33N 63°07' E 007°44'0 0.0
2017-Mar-25 01:33N 63°07' E 007°44'0 0.0
2017-Mar-25 00:33N 63°07' E 007°44'0 0.0
2017-Mar-24 23:33N 63°07' E 007°44'0 0.0
2017-Mar-24 22:33N 63°07' E 007°44'0 0.0
2017-Mar-24 21:33N 63°07' E 007°44'0 0.0
2017-Mar-24 20:33N 63°07' E 007°44'0 0.0
2017-Mar-24 19:33N 63°07' E 007°44'0 0.0
2017-Mar-24 18:33N 63°07' E 007°44'0 0.0
2017-Mar-24 17:33N 63°07' E 007°44'0 0.0
2017-Mar-24 16:27N 63°07' E 007°44'0 0.0
2017-Mar-24 15:33N 63°07' E 007°44'0 0.0
2017-Mar-24 14:33N 63°07' E 007°44'0 0.0
2017-Mar-24 13:33N 63°07' E 007°44'0 0.0
2017-Mar-24 12:33N 63°07' E 007°44'0 0.0
2017-Mar-24 11:30N 63°07' E 007°44'0 0.0
2017-Mar-24 10:33N 63°07' E 007°44'0 0.0
2017-Mar-24 09:33N 63°07' E 007°44'0 0.0
2017-Mar-24 08:33N 63°07' E 007°44'0 0.0
2017-Mar-24 07:33N 63°07' E 007°44'0 0.0
2017-Mar-24 06:33N 63°07' E 007°44'0 0.0
2017-Mar-24 05:33N 63°07' E 007°44'0 0.0
2017-Mar-24 04:33N 63°07' E 007°44'0 0.0
2017-Mar-24 03:33N 63°07' E 007°44'0 0.0
2017-Mar-24 02:33N 63°07' E 007°44'0 0.0
2017-Mar-24 01:33N 63°07' E 007°44'0 0.0
2017-Mar-24 00:33N 63°07' E 007°44'0 0.0
2017-Mar-23 23:33N 63°07' E 007°44'0 0.0
2017-Mar-23 22:30N 63°07' E 007°44'0 0.0
2017-Mar-23 21:30N 63°07' E 007°44'0 0.0
2017-Mar-23 20:33N 63°07' E 007°44'0 0.0
2017-Mar-23 19:33N 63°07' E 007°44'0 0.0
2017-Mar-23 18:33N 63°07' E 007°44'0 0.0
2017-Mar-23 17:33N 63°07' E 007°44'0 0.0
2017-Mar-23 16:33N 63°07' E 007°44'4 3.8
2017-Mar-23 15:34N 63°07' E 007°36'2117.8
2017-Mar-23 14:24N 62°56' E 006°57'6 6.7
2017-Mar-23 13:30N 62°51' E 006°53'0 0.0
2017-Mar-23 12:21N 62°51' E 006°53'0 0.0
2017-Mar-23 11:27N 62°51' E 006°53'0 0.0
2017-Mar-23 07:33N 62°51' E 006°53'0 0.0
2017-Mar-23 06:33N 62°51' E 006°53'0 0.0
2017-Mar-23 05:27N 62°51' E 006°53'0 0.0
2017-Mar-23 04:30N 62°51' E 006°53'0 0.0
2017-Mar-23 03:21N 62°51' E 006°53'0 0.0
2017-Mar-23 02:21N 62°51' E 006°53'0 0.0
2017-Mar-23 01:27N 62°51' E 006°53'0 0.0
2017-Mar-23 00:33N 62°51' E 006°53'0 0.0
2017-Mar-22 23:30N 62°51' E 006°53'0 0.0
2017-Mar-22 22:33N 62°51' E 006°53'0 0.0
2017-Mar-22 21:33N 62°51' E 006°53'0 0.0
2017-Mar-22 20:33N 62°51' E 006°53'0 0.0
2017-Mar-22 19:33N 62°51' E 006°53'0 0.0
2017-Mar-22 18:33N 62°51' E 006°53'0 0.0
2017-Mar-22 17:33N 62°51' E 006°53'0 0.0
2017-Mar-22 16:33N 62°51' E 006°53'0 0.0
2017-Mar-22 15:33N 62°51' E 006°53'0 0.0
2017-Mar-22 14:33N 62°51' E 006°53'0 0.0
2017-Mar-22 13:27N 62°51' E 006°53'0 0.0
2017-Mar-22 12:33N 62°51' E 006°53'0 0.0
2017-Mar-22 11:30N 62°51' E 006°53'3 1.7
2017-Mar-22 09:29N 62°54' E 006°57'0 0.0
2017-Mar-22 08:32N 62°54' E 006°57'0 0.0
2017-Mar-22 07:32N 62°54' E 006°57'0 0.0
2017-Mar-22 06:32N 62°54' E 006°57'0 0.0
2017-Mar-22 05:32N 62°54' E 006°57'0 0.0
2017-Mar-22 04:32N 62°54' E 006°57'0 0.0
2017-Mar-22 03:32N 62°54' E 006°57'0 0.0
2017-Mar-22 02:29N 62°54' E 006°57'0 0.0
2017-Mar-22 01:29N 62°54' E 006°57'0 0.0
2017-Mar-22 00:32N 62°54' E 006°57'0 0.0
2017-Mar-21 23:32N 62°54' E 006°57'0 0.0
2017-Mar-21 22:29N 62°54' E 006°57'0 0.0
2017-Mar-21 21:32N 62°54' E 006°57'0 0.0
2017-Mar-21 20:32N 62°54' E 006°57'0 0.0
2017-Mar-21 19:29N 62°54' E 006°57'0 0.0
2017-Mar-21 18:32N 62°54' E 006°57'0 0.0
2017-Mar-21 17:32N 62°54' E 006°57'0 0.0
2017-Mar-21 16:33N 62°54' E 006°57'0 0.0
2017-Mar-21 15:34N 62°54' E 006°57'2 2.2
2017-Mar-21 14:33N 62°54' E 006°53'2 2.2
2017-Mar-21 13:33N 62°54' E 006°57'0 0.0
2017-Mar-21 12:34N 62°54' E 006°57'1313.1
2017-Mar-21 11:34N 63°02' E 007°19'1211.8
2017-Mar-21 10:31N 63°07' E 007°44'0 0.0
2017-Mar-21 09:31N 63°07' E 007°44'0 0.0
2017-Mar-21 08:28N 63°07' E 007°44'0 0.0
2017-Mar-21 07:28N 63°07' E 007°44'0 0.0
2017-Mar-21 06:31N 63°07' E 007°44'0 0.0
2017-Mar-21 05:28N 63°07' E 007°44'0 0.0
2017-Mar-21 04:31N 63°07' E 007°44'0 0.0
2017-Mar-21 03:31N 63°07' E 007°44'0 0.0
2017-Mar-21 02:31N 63°07' E 007°44'0 0.0
2017-Mar-21 01:31N 63°07' E 007°44'0 0.0
2017-Mar-21 00:31N 63°07' E 007°44'0 0.0
2017-Mar-20 23:31N 63°07' E 007°44'0 0.0
2017-Mar-20 22:31N 63°07' E 007°44'0 0.0
2017-Mar-20 21:31N 63°07' E 007°44'0 0.0
2017-Mar-20 20:31N 63°07' E 007°44'0 0.0
2017-Mar-20 19:31N 63°07' E 007°44'  

Dump ship's entire track history